sensor_id;sensor_type;location;lat;lon;timestamp;P1;durP1;ratioP1;P2;durP2;ratioP2
41883;SDS011;27566;50.930;5.328;2024-02-21T00:01:08;26.75;;;13.38;;
41883;SDS011;27566;50.930;5.328;2024-02-21T00:03:41;30.60;;;15.77;;
41883;SDS011;27566;50.930;5.328;2024-02-21T00:06:07;26.60;;;15.18;;
41883;SDS011;27566;50.930;5.328;2024-02-21T00:08:33;23.55;;;13.00;;
41883;SDS011;27566;50.930;5.328;2024-02-21T00:10:59;26.50;;;13.95;;
41883;SDS011;27566;50.930;5.328;2024-02-21T00:13:24;28.58;;;13.10;;
41883;SDS011;27566;50.930;5.328;2024-02-21T00:15:51;23.85;;;13.55;;
41883;SDS011;27566;50.930;5.328;2024-02-21T00:18:17;25.58;;;13.68;;
41883;SDS011;27566;50.930;5.328;2024-02-21T00:20:43;33.83;;;14.73;;
41883;SDS011;27566;50.930;5.328;2024-02-21T00:23:09;29.05;;;12.70;;
41883;SDS011;27566;50.930;5.328;2024-02-21T00:25:34;24.80;;;12.77;;
41883;SDS011;27566;50.930;5.328;2024-02-21T00:28:01;34.50;;;14.73;;
41883;SDS011;27566;50.930;5.328;2024-02-21T00:30:27;28.95;;;13.68;;
41883;SDS011;27566;50.930;5.328;2024-02-21T00:32:53;28.10;;;13.40;;
41883;SDS011;27566;50.930;5.328;2024-02-21T00:35:19;21.33;;;12.18;;
41883;SDS011;27566;50.930;5.328;2024-02-21T00:37:45;28.30;;;11.13;;
41883;SDS011;27566;50.930;5.328;2024-02-21T00:40:11;22.55;;;12.10;;
41883;SDS011;27566;50.930;5.328;2024-02-21T00:42:37;24.25;;;11.75;;
41883;SDS011;27566;50.930;5.328;2024-02-21T00:45:03;25.55;;;11.07;;
41883;SDS011;27566;50.930;5.328;2024-02-21T00:47:29;26.30;;;12.02;;
41883;SDS011;27566;50.930;5.328;2024-02-21T00:49:55;29.17;;;11.82;;
41883;SDS011;27566;50.930;5.328;2024-02-21T00:52:21;26.15;;;10.70;;
41883;SDS011;27566;50.930;5.328;2024-02-21T00:54:47;26.10;;;11.95;;
41883;SDS011;27566;50.930;5.328;2024-02-21T00:57:14;20.40;;;11.40;;
41883;SDS011;27566;50.930;5.328;2024-02-21T00:59:40;25.02;;;10.82;;
41883;SDS011;27566;50.930;5.328;2024-02-21T01:02:06;22.65;;;12.27;;
41883;SDS011;27566;50.930;5.328;2024-02-21T01:04:34;24.30;;;11.43;;
41883;SDS011;27566;50.930;5.328;2024-02-21T01:07:02;28.23;;;11.85;;
41883;SDS011;27566;50.930;5.328;2024-02-21T01:09:27;21.90;;;11.00;;
41883;SDS011;27566;50.930;5.328;2024-02-21T01:11:54;17.75;;;10.30;;
41883;SDS011;27566;50.930;5.328;2024-02-21T01:14:19;23.38;;;10.45;;
41883;SDS011;27566;50.930;5.328;2024-02-21T01:16:46;27.83;;;10.52;;
41883;SDS011;27566;50.930;5.328;2024-02-21T01:19:12;20.08;;;9.52;;
41883;SDS011;27566;50.930;5.328;2024-02-21T01:21:38;20.42;;;10.10;;
41883;SDS011;27566;50.930;5.328;2024-02-21T01:24:04;26.27;;;11.70;;
41883;SDS011;27566;50.930;5.328;2024-02-21T01:26:30;20.45;;;9.57;;
41883;SDS011;27566;50.930;5.328;2024-02-21T01:28:56;28.85;;;10.43;;
41883;SDS011;27566;50.930;5.328;2024-02-21T01:31:22;17.38;;;8.85;;
41883;SDS011;27566;50.930;5.328;2024-02-21T01:33:48;18.75;;;9.40;;
41883;SDS011;27566;50.930;5.328;2024-02-21T01:36:14;19.88;;;8.38;;
41883;SDS011;27566;50.930;5.328;2024-02-21T01:38:40;23.50;;;10.75;;
41883;SDS011;27566;50.930;5.328;2024-02-21T01:41:06;21.73;;;10.05;;
41883;SDS011;27566;50.930;5.328;2024-02-21T01:43:32;22.65;;;9.65;;
41883;SDS011;27566;50.930;5.328;2024-02-21T01:45:58;20.58;;;9.65;;
41883;SDS011;27566;50.930;5.328;2024-02-21T01:48:24;18.63;;;7.85;;
41883;SDS011;27566;50.930;5.328;2024-02-21T01:50:51;22.25;;;9.15;;
41883;SDS011;27566;50.930;5.328;2024-02-21T01:56:15;22.13;;;12.05;;
41883;SDS011;27566;50.930;5.328;2024-02-21T01:58:42;18.10;;;8.20;;
41883;SDS011;27566;50.930;5.328;2024-02-21T02:01:12;20.65;;;8.60;;
41883;SDS011;27566;50.930;5.328;2024-02-21T02:03:38;20.25;;;8.80;;
41883;SDS011;27566;50.930;5.328;2024-02-21T02:06:07;18.80;;;8.43;;
41883;SDS011;27566;50.930;5.328;2024-02-21T02:08:33;22.40;;;8.52;;
41883;SDS011;27566;50.930;5.328;2024-02-21T02:10:59;24.98;;;8.55;;
41883;SDS011;27566;50.930;5.328;2024-02-21T02:13:25;21.38;;;9.88;;
41883;SDS011;27566;50.930;5.328;2024-02-21T02:15:51;25.58;;;7.93;;
41883;SDS011;27566;50.930;5.328;2024-02-21T02:18:18;17.15;;;8.82;;
41883;SDS011;27566;50.930;5.328;2024-02-21T02:20:44;23.02;;;9.13;;
41883;SDS011;27566;50.930;5.328;2024-02-21T02:25:36;17.25;;;7.88;;
41883;SDS011;27566;50.930;5.328;2024-02-21T02:28:06;21.70;;;9.40;;
41883;SDS011;27566;50.930;5.328;2024-02-21T02:30:33;26.63;;;10.90;;
41883;SDS011;27566;50.930;5.328;2024-02-21T02:33:01;27.35;;;10.18;;
41883;SDS011;27566;50.930;5.328;2024-02-21T02:35:27;24.30;;;8.93;;
41883;SDS011;27566;50.930;5.328;2024-02-21T02:37:53;18.38;;;8.45;;
41883;SDS011;27566;50.930;5.328;2024-02-21T02:40:19;18.20;;;8.52;;
41883;SDS011;27566;50.930;5.328;2024-02-21T02:42:45;15.82;;;8.18;;
41883;SDS011;27566;50.930;5.328;2024-02-21T02:45:11;20.15;;;9.70;;
41883;SDS011;27566;50.930;5.328;2024-02-21T02:47:39;17.80;;;8.70;;
41883;SDS011;27566;50.930;5.328;2024-02-21T02:50:06;15.27;;;7.85;;
41883;SDS011;27566;50.930;5.328;2024-02-21T02:52:32;21.33;;;10.48;;
41883;SDS011;27566;50.930;5.328;2024-02-21T02:54:58;26.08;;;8.40;;
41883;SDS011;27566;50.930;5.328;2024-02-21T02:57:24;20.88;;;9.02;;
41883;SDS011;27566;50.930;5.328;2024-02-21T02:59:50;16.60;;;9.15;;
41883;SDS011;27566;50.930;5.328;2024-02-21T03:02:16;19.08;;;9.93;;
41883;SDS011;27566;50.930;5.328;2024-02-21T03:04:43;21.77;;;9.23;;
41883;SDS011;27566;50.930;5.328;2024-02-21T03:07:09;17.50;;;9.70;;
41883;SDS011;27566;50.930;5.328;2024-02-21T03:09:36;18.13;;;8.27;;
41883;SDS011;27566;50.930;5.328;2024-02-21T03:12:03;19.70;;;8.93;;
41883;SDS011;27566;50.930;5.328;2024-02-21T03:14:29;16.85;;;8.10;;
41883;SDS011;27566;50.930;5.328;2024-02-21T03:16:55;21.20;;;9.57;;
41883;SDS011;27566;50.930;5.328;2024-02-21T03:19:22;19.05;;;10.10;;
41883;SDS011;27566;50.930;5.328;2024-02-21T03:21:48;21.52;;;8.23;;
41883;SDS011;27566;50.930;5.328;2024-02-21T03:24:15;27.65;;;9.73;;
41883;SDS011;27566;50.930;5.328;2024-02-21T03:26:41;22.77;;;10.10;;
41883;SDS011;27566;50.930;5.328;2024-02-21T03:29:07;23.88;;;8.68;;
41883;SDS011;27566;50.930;5.328;2024-02-21T03:31:34;23.58;;;9.13;;
41883;SDS011;27566;50.930;5.328;2024-02-21T03:34:00;19.02;;;10.88;;
41883;SDS011;27566;50.930;5.328;2024-02-21T03:36:26;21.40;;;9.88;;
41883;SDS011;27566;50.930;5.328;2024-02-21T03:38:51;22.88;;;10.45;;
41883;SDS011;27566;50.930;5.328;2024-02-21T03:41:17;18.13;;;8.60;;
41883;SDS011;27566;50.930;5.328;2024-02-21T03:43:43;18.60;;;9.00;;
41883;SDS011;27566;50.930;5.328;2024-02-21T03:46:09;19.38;;;8.48;;
41883;SDS011;27566;50.930;5.328;2024-02-21T03:48:35;16.25;;;8.80;;
41883;SDS011;27566;50.930;5.328;2024-02-21T03:51:01;17.38;;;8.63;;
41883;SDS011;27566;50.930;5.328;2024-02-21T03:53:28;18.67;;;7.90;;
41883;SDS011;27566;50.930;5.328;2024-02-21T03:55:54;20.65;;;7.63;;
41883;SDS011;27566;50.930;5.328;2024-02-21T03:58:20;19.42;;;8.40;;
41883;SDS011;27566;50.930;5.328;2024-02-21T04:00:46;18.40;;;9.90;;
41883;SDS011;27566;50.930;5.328;2024-02-21T04:03:12;20.10;;;9.00;;
41883;SDS011;27566;50.930;5.328;2024-02-21T04:05:38;18.33;;;8.98;;
41883;SDS011;27566;50.930;5.328;2024-02-21T04:08:05;27.15;;;8.93;;
41883;SDS011;27566;50.930;5.328;2024-02-21T04:10:31;18.17;;;9.52;;
41883;SDS011;27566;50.930;5.328;2024-02-21T04:12:57;19.58;;;8.30;;
41883;SDS011;27566;50.930;5.328;2024-02-21T04:15:22;20.98;;;8.70;;
41883;SDS011;27566;50.930;5.328;2024-02-21T04:17:48;18.02;;;7.32;;
41883;SDS011;27566;50.930;5.328;2024-02-21T04:20:15;14.95;;;9.32;;
41883;SDS011;27566;50.930;5.328;2024-02-21T04:22:44;19.63;;;9.10;;
41883;SDS011;27566;50.930;5.328;2024-02-21T04:25:10;17.15;;;9.32;;
41883;SDS011;27566;50.930;5.328;2024-02-21T04:27:38;20.67;;;8.88;;
41883;SDS011;27566;50.930;5.328;2024-02-21T04:30:04;23.48;;;8.65;;
41883;SDS011;27566;50.930;5.328;2024-02-21T04:32:30;18.15;;;9.38;;
41883;SDS011;27566;50.930;5.328;2024-02-21T04:34:56;18.35;;;8.50;;
41883;SDS011;27566;50.930;5.328;2024-02-21T04:37:22;16.83;;;7.60;;
41883;SDS011;27566;50.930;5.328;2024-02-21T04:39:48;17.80;;;8.27;;
41883;SDS011;27566;50.930;5.328;2024-02-21T04:42:15;23.08;;;8.77;;
41883;SDS011;27566;50.930;5.328;2024-02-21T04:44:40;22.83;;;8.98;;
41883;SDS011;27566;50.930;5.328;2024-02-21T04:47:07;25.10;;;9.20;;
41883;SDS011;27566;50.930;5.328;2024-02-21T04:49:33;22.17;;;9.65;;
41883;SDS011;27566;50.930;5.328;2024-02-21T04:51:59;21.60;;;8.60;;
41883;SDS011;27566;50.930;5.328;2024-02-21T04:54:25;24.13;;;8.98;;
41883;SDS011;27566;50.930;5.328;2024-02-21T04:56:51;20.02;;;7.80;;
41883;SDS011;27566;50.930;5.328;2024-02-21T04:59:18;18.95;;;8.50;;
41883;SDS011;27566;50.930;5.328;2024-02-21T05:01:44;18.60;;;7.28;;
41883;SDS011;27566;50.930;5.328;2024-02-21T05:04:10;19.10;;;8.43;;
41883;SDS011;27566;50.930;5.328;2024-02-21T05:06:42;17.23;;;8.05;;
41883;SDS011;27566;50.930;5.328;2024-02-21T05:09:08;19.67;;;9.25;;
41883;SDS011;27566;50.930;5.328;2024-02-21T05:11:35;24.45;;;8.98;;
41883;SDS011;27566;50.930;5.328;2024-02-21T05:14:01;16.85;;;8.27;;
41883;SDS011;27566;50.930;5.328;2024-02-21T05:16:27;15.40;;;7.50;;
41883;SDS011;27566;50.930;5.328;2024-02-21T05:18:53;16.52;;;8.73;;
41883;SDS011;27566;50.930;5.328;2024-02-21T05:21:21;17.40;;;7.60;;
41883;SDS011;27566;50.930;5.328;2024-02-21T05:23:50;17.83;;;8.38;;
41883;SDS011;27566;50.930;5.328;2024-02-21T05:26:23;15.05;;;7.05;;
41883;SDS011;27566;50.930;5.328;2024-02-21T05:28:50;17.52;;;7.75;;
41883;SDS011;27566;50.930;5.328;2024-02-21T05:31:19;18.45;;;7.88;;
41883;SDS011;27566;50.930;5.328;2024-02-21T05:33:46;17.83;;;6.53;;
41883;SDS011;27566;50.930;5.328;2024-02-21T05:36:12;12.45;;;7.07;;
41883;SDS011;27566;50.930;5.328;2024-02-21T05:38:38;13.82;;;8.30;;
41883;SDS011;27566;50.930;5.328;2024-02-21T05:41:05;14.98;;;7.25;;
41883;SDS011;27566;50.930;5.328;2024-02-21T05:43:31;18.08;;;7.75;;
41883;SDS011;27566;50.930;5.328;2024-02-21T05:45:57;11.80;;;7.20;;
41883;SDS011;27566;50.930;5.328;2024-02-21T05:48:24;16.90;;;7.43;;
41883;SDS011;27566;50.930;5.328;2024-02-21T05:50:50;14.07;;;6.97;;
41883;SDS011;27566;50.930;5.328;2024-02-21T05:53:16;16.55;;;6.78;;
41883;SDS011;27566;50.930;5.328;2024-02-21T05:55:42;19.83;;;7.20;;
41883;SDS011;27566;50.930;5.328;2024-02-21T05:58:09;15.05;;;6.65;;
41883;SDS011;27566;50.930;5.328;2024-02-21T06:00:38;15.63;;;6.78;;
41883;SDS011;27566;50.930;5.328;2024-02-21T06:03:04;12.15;;;5.90;;
41883;SDS011;27566;50.930;5.328;2024-02-21T06:05:36;14.57;;;7.10;;
41883;SDS011;27566;50.930;5.328;2024-02-21T06:08:03;12.30;;;6.78;;
41883;SDS011;27566;50.930;5.328;2024-02-21T06:10:30;14.50;;;7.40;;
41883;SDS011;27566;50.930;5.328;2024-02-21T06:12:55;15.25;;;8.30;;
41883;SDS011;27566;50.930;5.328;2024-02-21T06:15:21;12.88;;;6.20;;
41883;SDS011;27566;50.930;5.328;2024-02-21T06:17:47;14.13;;;7.20;;
41883;SDS011;27566;50.930;5.328;2024-02-21T06:20:15;18.05;;;7.70;;
41883;SDS011;27566;50.930;5.328;2024-02-21T06:22:41;14.52;;;8.25;;
41883;SDS011;27566;50.930;5.328;2024-02-21T06:25:07;18.08;;;7.75;;
41883;SDS011;27566;50.930;5.328;2024-02-21T06:27:34;11.50;;;6.35;;
41883;SDS011;27566;50.930;5.328;2024-02-21T06:30:00;16.40;;;7.78;;
41883;SDS011;27566;50.930;5.328;2024-02-21T06:32:26;13.55;;;7.78;;
41883;SDS011;27566;50.930;5.328;2024-02-21T06:34:52;14.52;;;7.93;;
41883;SDS011;27566;50.930;5.328;2024-02-21T06:37:18;15.45;;;7.10;;
41883;SDS011;27566;50.930;5.328;2024-02-21T06:39:44;14.45;;;7.18;;
41883;SDS011;27566;50.930;5.328;2024-02-21T06:42:10;18.67;;;9.85;;
41883;SDS011;27566;50.930;5.328;2024-02-21T06:44:36;19.52;;;8.63;;
41883;SDS011;27566;50.930;5.328;2024-02-21T06:47:05;14.52;;;8.02;;
41883;SDS011;27566;50.930;5.328;2024-02-21T06:49:32;23.67;;;9.05;;
41883;SDS011;27566;50.930;5.328;2024-02-21T06:51:58;22.92;;;9.93;;
41883;SDS011;27566;50.930;5.328;2024-02-21T06:54:25;17.30;;;8.60;;
41883;SDS011;27566;50.930;5.328;2024-02-21T06:56:51;15.48;;;7.38;;
41883;SDS011;27566;50.930;5.328;2024-02-21T06:59:16;18.25;;;7.53;;
41883;SDS011;27566;50.930;5.328;2024-02-21T07:01:47;13.55;;;7.78;;
41883;SDS011;27566;50.930;5.328;2024-02-21T07:04:14;32.03;;;8.30;;
41883;SDS011;27566;50.930;5.328;2024-02-21T07:06:40;16.38;;;6.70;;
41883;SDS011;27566;50.930;5.328;2024-02-21T07:09:06;17.25;;;8.73;;
41883;SDS011;27566;50.930;5.328;2024-02-21T07:11:32;20.52;;;8.07;;
41883;SDS011;27566;50.930;5.328;2024-02-21T07:13:58;14.13;;;6.80;;
41883;SDS011;27566;50.930;5.328;2024-02-21T07:16:24;13.60;;;7.32;;
41883;SDS011;27566;50.930;5.328;2024-02-21T07:18:51;16.00;;;7.95;;
41883;SDS011;27566;50.930;5.328;2024-02-21T07:21:18;15.73;;;8.05;;
41883;SDS011;27566;50.930;5.328;2024-02-21T07:23:43;21.80;;;7.57;;
41883;SDS011;27566;50.930;5.328;2024-02-21T07:26:10;15.52;;;6.88;;
41883;SDS011;27566;50.930;5.328;2024-02-21T07:28:36;14.13;;;7.35;;
41883;SDS011;27566;50.930;5.328;2024-02-21T07:31:02;16.65;;;8.32;;
41883;SDS011;27566;50.930;5.328;2024-02-21T07:33:29;16.55;;;7.97;;
41883;SDS011;27566;50.930;5.328;2024-02-21T07:35:56;20.02;;;8.05;;
41883;SDS011;27566;50.930;5.328;2024-02-21T07:38:22;17.20;;;7.20;;
41883;SDS011;27566;50.930;5.328;2024-02-21T07:40:47;19.23;;;6.85;;
41883;SDS011;27566;50.930;5.328;2024-02-21T07:43:14;18.23;;;7.47;;
41883;SDS011;27566;50.930;5.328;2024-02-21T07:45:40;21.02;;;8.35;;
41883;SDS011;27566;50.930;5.328;2024-02-21T07:48:06;13.82;;;6.78;;
41883;SDS011;27566;50.930;5.328;2024-02-21T07:50:32;14.45;;;6.28;;
41883;SDS011;27566;50.930;5.328;2024-02-21T07:52:58;14.85;;;6.63;;
41883;SDS011;27566;50.930;5.328;2024-02-21T07:55:24;13.18;;;7.05;;
41883;SDS011;27566;50.930;5.328;2024-02-21T07:57:50;15.30;;;7.50;;
41883;SDS011;27566;50.930;5.328;2024-02-21T08:00:16;16.13;;;7.60;;
41883;SDS011;27566;50.930;5.328;2024-02-21T08:02:48;13.77;;;6.88;;
41883;SDS011;27566;50.930;5.328;2024-02-21T08:05:14;11.75;;;6.03;;
41883;SDS011;27566;50.930;5.328;2024-02-21T08:07:40;15.18;;;6.43;;
41883;SDS011;27566;50.930;5.328;2024-02-21T08:10:06;12.57;;;6.00;;
41883;SDS011;27566;50.930;5.328;2024-02-21T08:12:33;13.43;;;5.30;;
41883;SDS011;27566;50.930;5.328;2024-02-21T08:14:59;14.70;;;5.97;;
41883;SDS011;27566;50.930;5.328;2024-02-21T08:17:25;13.45;;;5.93;;
41883;SDS011;27566;50.930;5.328;2024-02-21T08:19:51;12.18;;;5.72;;
41883;SDS011;27566;50.930;5.328;2024-02-21T08:22:17;12.65;;;5.93;;
41883;SDS011;27566;50.930;5.328;2024-02-21T08:24:44;9.20;;;5.43;;
41883;SDS011;27566;50.930;5.328;2024-02-21T08:27:10;12.70;;;5.80;;
41883;SDS011;27566;50.930;5.328;2024-02-21T08:29:36;14.60;;;5.93;;
41883;SDS011;27566;50.930;5.328;2024-02-21T08:32:02;17.55;;;5.88;;
41883;SDS011;27566;50.930;5.328;2024-02-21T08:34:29;11.93;;;4.80;;
41883;SDS011;27566;50.930;5.328;2024-02-21T08:36:58;11.48;;;5.78;;
41883;SDS011;27566;50.930;5.328;2024-02-21T08:39:25;13.68;;;4.75;;
41883;SDS011;27566;50.930;5.328;2024-02-21T08:41:53;11.60;;;5.22;;
41883;SDS011;27566;50.930;5.328;2024-02-21T08:44:19;10.18;;;5.05;;
41883;SDS011;27566;50.930;5.328;2024-02-21T08:46:47;16.35;;;5.88;;
41883;SDS011;27566;50.930;5.328;2024-02-21T08:49:13;15.02;;;4.47;;
41883;SDS011;27566;50.930;5.328;2024-02-21T08:51:40;16.60;;;5.47;;
41883;SDS011;27566;50.930;5.328;2024-02-21T08:54:06;14.00;;;6.75;;
41883;SDS011;27566;50.930;5.328;2024-02-21T08:56:33;16.10;;;5.18;;
41883;SDS011;27566;50.930;5.328;2024-02-21T08:59:00;9.45;;;4.97;;
41883;SDS011;27566;50.930;5.328;2024-02-21T09:01:27;9.20;;;4.78;;
41883;SDS011;27566;50.930;5.328;2024-02-21T09:03:53;12.25;;;5.40;;
41883;SDS011;27566;50.930;5.328;2024-02-21T09:06:21;9.80;;;4.88;;
41883;SDS011;27566;50.930;5.328;2024-02-21T09:08:48;12.95;;;5.93;;
41883;SDS011;27566;50.930;5.328;2024-02-21T09:11:14;11.95;;;5.65;;
41883;SDS011;27566;50.930;5.328;2024-02-21T09:13:40;8.88;;;4.63;;
41883;SDS011;27566;50.930;5.328;2024-02-21T09:16:06;9.10;;;4.90;;
41883;SDS011;27566;50.930;5.328;2024-02-21T09:18:34;12.57;;;5.05;;
41883;SDS011;27566;50.930;5.328;2024-02-21T09:21:00;12.20;;;4.32;;
41883;SDS011;27566;50.930;5.328;2024-02-21T09:23:26;11.88;;;5.35;;
41883;SDS011;27566;50.930;5.328;2024-02-21T09:25:52;12.68;;;5.35;;
41883;SDS011;27566;50.930;5.328;2024-02-21T09:28:20;13.07;;;4.45;;
41883;SDS011;27566;50.930;5.328;2024-02-21T09:30:47;11.95;;;4.75;;
41883;SDS011;27566;50.930;5.328;2024-02-21T09:33:13;14.40;;;6.43;;
41883;SDS011;27566;50.930;5.328;2024-02-21T09:35:40;10.32;;;4.28;;
41883;SDS011;27566;50.930;5.328;2024-02-21T09:38:06;12.68;;;5.25;;
41883;SDS011;27566;50.930;5.328;2024-02-21T09:40:32;16.40;;;4.78;;
41883;SDS011;27566;50.930;5.328;2024-02-21T09:43:04;15.20;;;4.85;;
41883;SDS011;27566;50.930;5.328;2024-02-21T09:45:32;10.35;;;4.10;;
41883;SDS011;27566;50.930;5.328;2024-02-21T09:50:51;11.05;;;6.10;;
41883;SDS011;27566;50.930;5.328;2024-02-21T09:53:20;7.57;;;4.35;;
41883;SDS011;27566;50.930;5.328;2024-02-21T09:55:49;13.82;;;5.10;;
41883;SDS011;27566;50.930;5.328;2024-02-21T09:58:16;10.77;;;4.88;;
41883;SDS011;27566;50.930;5.328;2024-02-21T10:00:42;12.13;;;5.63;;
41883;SDS011;27566;50.930;5.328;2024-02-21T10:03:08;12.27;;;5.35;;
41883;SDS011;27566;50.930;5.328;2024-02-21T10:05:35;9.13;;;4.00;;
41883;SDS011;27566;50.930;5.328;2024-02-21T10:08:02;10.55;;;4.78;;
41883;SDS011;27566;50.930;5.328;2024-02-21T10:10:29;12.85;;;4.40;;
41883;SDS011;27566;50.930;5.328;2024-02-21T10:12:55;14.65;;;5.22;;
41883;SDS011;27566;50.930;5.328;2024-02-21T10:15:23;10.43;;;4.07;;
41883;SDS011;27566;50.930;5.328;2024-02-21T10:17:57;13.07;;;4.40;;
41883;SDS011;27566;50.930;5.328;2024-02-21T10:20:25;10.48;;;4.50;;
41883;SDS011;27566;50.930;5.328;2024-02-21T10:23:00;10.55;;;5.20;;
41883;SDS011;27566;50.930;5.328;2024-02-21T10:25:36;12.70;;;5.68;;
41883;SDS011;27566;50.930;5.328;2024-02-21T10:28:13;8.85;;;3.92;;
41883;SDS011;27566;50.930;5.328;2024-02-21T10:30:51;9.63;;;3.75;;
41883;SDS011;27566;50.930;5.328;2024-02-21T10:33:17;14.52;;;5.47;;
41883;SDS011;27566;50.930;5.328;2024-02-21T10:35:47;9.13;;;4.22;;
41883;SDS011;27566;50.930;5.328;2024-02-21T10:38:14;10.20;;;4.35;;
41883;SDS011;27566;50.930;5.328;2024-02-21T10:40:41;9.70;;;4.30;;
41883;SDS011;27566;50.930;5.328;2024-02-21T10:43:08;7.85;;;4.68;;
41883;SDS011;27566;50.930;5.328;2024-02-21T10:45:37;12.15;;;3.83;;
41883;SDS011;27566;50.930;5.328;2024-02-21T10:48:13;14.80;;;5.40;;
41883;SDS011;27566;50.930;5.328;2024-02-21T10:53:24;10.50;;;4.32;;
41883;SDS011;27566;50.930;5.328;2024-02-21T10:56:15;18.42;;;5.53;;
41883;SDS011;27566;50.930;5.328;2024-02-21T10:58:49;9.30;;;4.32;;
41883;SDS011;27566;50.930;5.328;2024-02-21T11:01:15;11.52;;;4.70;;
41883;SDS011;27566;50.930;5.328;2024-02-21T11:03:43;12.57;;;5.00;;
41883;SDS011;27566;50.930;5.328;2024-02-21T11:06:11;12.20;;;5.25;;
41883;SDS011;27566;50.930;5.328;2024-02-21T11:08:38;17.92;;;5.25;;
41883;SDS011;27566;50.930;5.328;2024-02-21T11:11:05;14.48;;;4.82;;
41883;SDS011;27566;50.930;5.328;2024-02-21T11:13:37;9.25;;;3.72;;
41883;SDS011;27566;50.930;5.328;2024-02-21T11:16:07;14.57;;;4.07;;
41883;SDS011;27566;50.930;5.328;2024-02-21T11:18:41;15.45;;;5.03;;
41883;SDS011;27566;50.930;5.328;2024-02-21T11:21:07;10.93;;;4.20;;
41883;SDS011;27566;50.930;5.328;2024-02-21T11:23:34;12.07;;;4.43;;
41883;SDS011;27566;50.930;5.328;2024-02-21T11:26:06;11.75;;;5.28;;
41883;SDS011;27566;50.930;5.328;2024-02-21T11:28:33;11.20;;;4.63;;
41883;SDS011;27566;50.930;5.328;2024-02-21T11:31:08;10.27;;;4.22;;
41883;SDS011;27566;50.930;5.328;2024-02-21T11:33:34;13.48;;;4.95;;
41883;SDS011;27566;50.930;5.328;2024-02-21T11:36:01;14.07;;;4.38;;
41883;SDS011;27566;50.930;5.328;2024-02-21T11:38:29;18.55;;;5.20;;
41883;SDS011;27566;50.930;5.328;2024-02-21T11:40:55;14.63;;;4.00;;
41883;SDS011;27566;50.930;5.328;2024-02-21T11:43:21;10.25;;;4.75;;
41883;SDS011;27566;50.930;5.328;2024-02-21T11:45:47;12.77;;;5.30;;
41883;SDS011;27566;50.930;5.328;2024-02-21T11:48:14;12.88;;;5.03;;
41883;SDS011;27566;50.930;5.328;2024-02-21T11:50:40;10.77;;;4.03;;
41883;SDS011;27566;50.930;5.328;2024-02-21T11:53:06;14.63;;;4.20;;
41883;SDS011;27566;50.930;5.328;2024-02-21T11:55:32;11.00;;;4.68;;
41883;SDS011;27566;50.930;5.328;2024-02-21T11:57:59;11.38;;;4.97;;
41883;SDS011;27566;50.930;5.328;2024-02-21T12:00:25;11.43;;;4.63;;
41883;SDS011;27566;50.930;5.328;2024-02-21T12:02:51;7.55;;;4.35;;
41883;SDS011;27566;50.930;5.328;2024-02-21T12:05:20;12.13;;;3.80;;
41883;SDS011;27566;50.930;5.328;2024-02-21T12:07:46;10.13;;;3.60;;
41883;SDS011;27566;50.930;5.328;2024-02-21T12:10:12;9.35;;;3.17;;
41883;SDS011;27566;50.930;5.328;2024-02-21T12:12:39;11.93;;;4.03;;
41883;SDS011;27566;50.930;5.328;2024-02-21T12:15:05;9.70;;;3.70;;
41883;SDS011;27566;50.930;5.328;2024-02-21T12:17:35;8.00;;;3.25;;
41883;SDS011;27566;50.930;5.328;2024-02-21T12:20:05;14.00;;;4.93;;
41883;SDS011;27566;50.930;5.328;2024-02-21T12:22:43;9.05;;;3.17;;
41883;SDS011;27566;50.930;5.328;2024-02-21T12:25:16;6.57;;;3.67;;
41883;SDS011;27566;50.930;5.328;2024-02-21T12:27:44;9.98;;;3.42;;
41883;SDS011;27566;50.930;5.328;2024-02-21T12:30:10;7.93;;;2.97;;
41883;SDS011;27566;50.930;5.328;2024-02-21T12:32:39;8.13;;;3.75;;
41883;SDS011;27566;50.930;5.328;2024-02-21T12:35:06;10.02;;;3.55;;
41883;SDS011;27566;50.930;5.328;2024-02-21T12:37:33;7.60;;;3.08;;
41883;SDS011;27566;50.930;5.328;2024-02-21T12:39:59;8.63;;;2.92;;
41883;SDS011;27566;50.930;5.328;2024-02-21T12:42:25;6.22;;;3.28;;
41883;SDS011;27566;50.930;5.328;2024-02-21T12:44:52;5.35;;;2.33;;
41883;SDS011;27566;50.930;5.328;2024-02-21T12:47:18;8.85;;;2.50;;
41883;SDS011;27566;50.930;5.328;2024-02-21T12:49:48;6.05;;;2.72;;
41883;SDS011;27566;50.930;5.328;2024-02-21T12:52:14;9.73;;;3.00;;
41883;SDS011;27566;50.930;5.328;2024-02-21T12:54:41;5.38;;;2.50;;
41883;SDS011;27566;50.930;5.328;2024-02-21T12:57:08;9.57;;;4.20;;
41883;SDS011;27566;50.930;5.328;2024-02-21T12:59:34;9.90;;;3.33;;
41883;SDS011;27566;50.930;5.328;2024-02-21T13:02:00;6.60;;;3.40;;
41883;SDS011;27566;50.930;5.328;2024-02-21T13:04:26;9.75;;;3.03;;
41883;SDS011;27566;50.930;5.328;2024-02-21T13:06:52;5.85;;;3.00;;
41883;SDS011;27566;50.930;5.328;2024-02-21T13:09:18;10.32;;;2.78;;
41883;SDS011;27566;50.930;5.328;2024-02-21T13:11:45;11.98;;;3.08;;
41883;SDS011;27566;50.930;5.328;2024-02-21T13:14:11;6.60;;;3.63;;
41883;SDS011;27566;50.930;5.328;2024-02-21T13:16:37;6.82;;;2.47;;
41883;SDS011;27566;50.930;5.328;2024-02-21T13:19:06;7.07;;;3.00;;
41883;SDS011;27566;50.930;5.328;2024-02-21T13:21:35;8.57;;;2.47;;
41883;SDS011;27566;50.930;5.328;2024-02-21T13:24:01;7.82;;;3.42;;
41883;SDS011;27566;50.930;5.328;2024-02-21T13:26:28;7.47;;;2.97;;
41883;SDS011;27566;50.930;5.328;2024-02-21T13:28:54;5.55;;;2.97;;
41883;SDS011;27566;50.930;5.328;2024-02-21T13:31:20;6.82;;;2.60;;
41883;SDS011;27566;50.930;5.328;2024-02-21T13:33:46;7.65;;;2.83;;
41883;SDS011;27566;50.930;5.328;2024-02-21T13:36:12;6.88;;;2.80;;
41883;SDS011;27566;50.930;5.328;2024-02-21T13:38:38;6.45;;;2.40;;
41883;SDS011;27566;50.930;5.328;2024-02-21T13:41:05;4.90;;;2.65;;
41883;SDS011;27566;50.930;5.328;2024-02-21T13:43:34;7.90;;;2.70;;
41883;SDS011;27566;50.930;5.328;2024-02-21T13:46:00;6.55;;;2.63;;
41883;SDS011;27566;50.930;5.328;2024-02-21T13:48:31;10.60;;;2.78;;
41883;SDS011;27566;50.930;5.328;2024-02-21T13:50:58;13.13;;;2.95;;
41883;SDS011;27566;50.930;5.328;2024-02-21T13:53:27;9.00;;;3.92;;
41883;SDS011;27566;50.930;5.328;2024-02-21T13:55:53;8.40;;;3.88;;
41883;SDS011;27566;50.930;5.328;2024-02-21T13:58:19;5.75;;;2.53;;
41883;SDS011;27566;50.930;5.328;2024-02-21T14:00:46;8.13;;;2.88;;
41883;SDS011;27566;50.930;5.328;2024-02-21T14:03:12;7.03;;;3.22;;
41883;SDS011;27566;50.930;5.328;2024-02-21T14:05:38;8.20;;;3.95;;
41883;SDS011;27566;50.930;5.328;2024-02-21T14:08:05;10.38;;;2.80;;
41883;SDS011;27566;50.930;5.328;2024-02-21T14:10:34;11.07;;;3.13;;
41883;SDS011;27566;50.930;5.328;2024-02-21T14:13:02;10.88;;;3.75;;
41883;SDS011;27566;50.930;5.328;2024-02-21T14:15:27;9.98;;;3.53;;
41883;SDS011;27566;50.930;5.328;2024-02-21T14:17:53;6.43;;;3.15;;
41883;SDS011;27566;50.930;5.328;2024-02-21T14:20:21;9.13;;;3.00;;
41883;SDS011;27566;50.930;5.328;2024-02-21T14:22:47;6.95;;;2.85;;
41883;SDS011;27566;50.930;5.328;2024-02-21T14:25:12;11.88;;;4.57;;
41883;SDS011;27566;50.930;5.328;2024-02-21T14:27:40;8.80;;;3.65;;
41883;SDS011;27566;50.930;5.328;2024-02-21T14:30:06;7.82;;;3.55;;
41883;SDS011;27566;50.930;5.328;2024-02-21T14:32:35;8.57;;;3.17;;
41883;SDS011;27566;50.930;5.328;2024-02-21T14:35:01;6.70;;;3.45;;
41883;SDS011;27566;50.930;5.328;2024-02-21T14:37:27;5.93;;;2.50;;
41883;SDS011;27566;50.930;5.328;2024-02-21T14:39:53;11.00;;;4.20;;
41883;SDS011;27566;50.930;5.328;2024-02-21T14:42:19;10.82;;;4.30;;
41883;SDS011;27566;50.930;5.328;2024-02-21T14:44:45;5.60;;;2.78;;